Aeroporto :
LOGIN :

Iscrizione | Disclaimer

   EN    FR    IT 

 










Sommario :    VFR   VFR Marginale   IFR   IFR Intensivo   IFR Molto Intensivo
Visibilità : 
Base nubi : 
>= 8 km
>= 3000ft
5 / 8 km
1000 / 3000 ft
1500m / 5 km
500 / 1000 ft
800 / 1500m
200 / 500 ft
< 800m
< 200 ft
Simboli :   Temporali  Nebbia  Neve Forte  Precipitazioni Forti  Vento > 20 kt
SIGMETs :   Varie  Temporali  Ghiacco  Turbolenza  Onda orograficha  Ceneri Vulcaniche







- Altitudine del aeroporto : 12 ft
- Codice IATA : BCN


LEBL - Barcelone

ULTIMO METAR :
  • 161430Z 10008KT 9999 FEW025TCU 21/15 Q1015 NOSIG

METARs OBSOLETI :
  • 161400Z 12008KT 080V140 9999 FEW025TCU 22/15 Q1015 NOSIG
  • 161330Z 10006KT 070V150 9999 FEW025 22/14 Q1015 NOSIG
  • 161300Z 10009KT 9999 FEW025 22/14 Q1015 NOSIG
  • 161230Z 08011KT 040V110 9999 FEW025 22/15 Q1015 NOSIG
  • 161200Z 06010KT 030V100 9999 FEW022 22/15 Q1015 NOSIG

TAF TAF LEBL
Valido dal 16 a 12 ore il 17 a 12 ore UTC


161100Z 1612/1712 08010KT 9999 FEW025 TX21/1612Z TN17/1706Z
TEMPO 1612/1712 FEW025TCU
PROB30
TEMPO 1612/1617 4000 SHRA SCT025TCU BKN030
BECMG 1618/1620 34007KT
BECMG 1708/1710 04012KT
Nessun NOTAM noto per questo aeroporto.
3 SIGMETs conosciuti per la FIR Barcelona (LECB) :
 
Temporali affogati
LECB SIGMET 8 VALID 161456/161700 LEVA
LECB BARCELONA FIR/UIR EMBD TS OBS AT 1456Z WI N3959 W00057 - N3957 W00018 - N3842 W00004 - N3828 W00119 - N3959 W00057 TOP FL380 STNR NC=
Temporali affogati
LECB SIGMET 7 VALID 161500/161700 LEVA
LECB BARCELONA FIR/UIR EMBD TS OBS AT 1456Z WI N3740 E00155 - N3855 E00041 - N3927 E00136 - N3823 E00238 - N3927 E00437 - N3856 E00440 - N3813 E00338 - N3740 E00155 TOP FL380 STNR NC=
Temporali affogati
LECB SIGMET 6 VALID 161335/161500 LEVA
LECB BARCELONA FIR/UIR EMBD TS OBS AT 1335Z WI N3750 E002 - N3850 E00220 - N3920 E00430 - N3850 E00410 - N3820 E00330 - N3750 E002 TOP FL380 STNR NC=



MetMap, La meteo Aeronautica in un colpo d'occhio ! - Copyright ORBIFLY Dicembre 2007 - Disclaimer

ORBIFLY MET'MAP TEAM :

Programmazione e sviluppo : Alexandra Zaïnal
Concezione e sviluppo : Baudouin d'Aumeries
Co-Programmazione e sviluppo : Marc-Olivier Méhu
Supporto tecnico e logistico : Manuel Goepfert
Aiuto per la traduzione : Arnaldo La Scala

Contatto : metmap@orbifly.com




FONTI E CREDITI :

   NOAA